Nunobiki Maru — JD3399 — position and weather

sailwx.info

Track history (hours):
 
Tides and Currents Weather Stations Pressure Air Temp Water Temp Dewpoint Dewpoint Depression Visibility Wind Speed Wind Dir Waves Ship Positions

Nunobiki Maru

Last reported at 2017-Oct-16 06:01 UTC. Time now 2017-Oct-17 13:11 UTC.
Position N 34°41' E 135°12'.

Length 34 m; draft 3.8 m.

Type: Tug. MMSI: 431003839.

Date/timePositionNaut miles runAvg speedWind from/ knotsBaromVisibWave heightAir tempDewpointWater temp
2017-Oct-16 06:01N 34°41' E 135°12'0 0.0
2017-Oct-16 05:55N 34°41' E 135°12'0 0.0
2017-Oct-16 05:25N 34°41' E 135°12'0 0.0
2017-Oct-16 04:55N 34°41' E 135°12'0 0.0
2017-Oct-16 04:25N 34°41' E 135°12'0 0.0
2017-Oct-16 03:55N 34°41' E 135°12'0 0.0
2017-Oct-16 03:25N 34°41' E 135°12'0 0.0
2017-Oct-16 02:55N 34°41' E 135°12'0 0.0
2017-Oct-16 02:13N 34°41' E 135°12'0 0.0
2017-Oct-16 01:55N 34°41' E 135°12'0 0.0
2017-Oct-16 01:25N 34°41' E 135°12'0 0.0
2017-Oct-16 00:49N 34°41' E 135°12'1 1.6
2017-Oct-16 00:30N 34°41' E 135°13'3 5.4
2017-Oct-15 23:56N 34°41' E 135°17'0 0.0
2017-Oct-15 23:26N 34°41' E 135°17'2 3.6
2017-Oct-15 23:00N 34°40' E 135°15'1 1.0
2017-Oct-15 22:31N 34°40' E 135°14'2 3.9
2017-Oct-15 22:00N 34°39' E 135°16'4 8.0
2017-Oct-15 21:31N 34°41' E 135°12'0 0.1
2017-Oct-15 21:00N 34°41' E 135°12'0 0.0
2017-Oct-15 20:30N 34°41' E 135°12'0 0.0
2017-Oct-15 04:59N 34°41' E 135°12'0 0.0
2017-Oct-15 04:30N 34°41' E 135°12'0 0.0
2017-Oct-15 04:00N 34°41' E 135°12'0 0.0
2017-Oct-15 03:31N 34°41' E 135°12'0 0.0
2017-Oct-15 03:01N 34°41' E 135°12'0 0.0
2017-Oct-15 02:30N 34°41' E 135°12'0 0.0
2017-Oct-15 02:00N 34°41' E 135°12'0 0.0
2017-Oct-15 01:30N 34°41' E 135°12'0 0.0
2017-Oct-15 01:00N 34°41' E 135°12'0 0.0
2017-Oct-15 00:30N 34°41' E 135°12'0 0.0
2017-Oct-15 00:00N 34°41' E 135°12'4 8.8
2017-Oct-14 23:31N 34°42' E 135°17'1 1.1
2017-Oct-14 23:00N 34°41' E 135°17'1 1.6
2017-Oct-14 22:30N 34°41' E 135°18'1 1.3
2017-Oct-14 22:00N 34°40' E 135°18'2 4.0
2017-Oct-14 21:31N 34°41' E 135°15'3 4.1
2017-Oct-14 20:51N 34°41' E 135°12'1 0.0
2017-Oct-14 04:56N 34°41' E 135°13'1 1.2
2017-Oct-14 04:30N 34°41' E 135°14'0 0.0
2017-Oct-14 04:00N 34°41' E 135°14'0 0.0
2017-Oct-14 03:30N 34°41' E 135°14'0 0.0
2017-Oct-14 03:00N 34°41' E 135°14'0 0.0
2017-Oct-14 02:30N 34°41' E 135°14'0 0.0
2017-Oct-14 02:00N 34°41' E 135°14'1 1.6
2017-Oct-14 01:30N 34°41' E 135°13'4 7.7
2017-Oct-14 01:00N 34°41' E 135°17'0 1.0
2017-Oct-14 00:30N 34°41' E 135°18'1 1.7
2017-Oct-14 00:00N 34°40' E 135°18'0 0.2
2017-Oct-13 23:30N 34°40' E 135°18'2 3.7
2017-Oct-13 23:00N 34°41' E 135°16'1 1.5
2017-Oct-13 22:30N 34°41' E 135°16'1 2.4
2017-Oct-13 22:00N 34°41' E 135°18'2 4.3
2017-Oct-13 21:30N 34°41' E 135°15'3 5.3
2017-Oct-13 21:00N 34°41' E 135°12'0 0.0
2017-Oct-13 20:20N 34°41' E 135°12'0 0.0
2017-Oct-12 23:44N 34°41' E 135°12'1 6.6
2017-Oct-12 23:30N 34°41' E 135°14'1 2.9
2017-Oct-12 23:00N 34°41' E 135°16'1 1.2
2017-Oct-12 22:30N 34°40' E 135°15'1 1.1
2017-Oct-12 21:51N 34°40' E 135°15'1 2.0
2017-Oct-12 21:29N 34°40' E 135°15'2 4.3
2017-Oct-12 20:57N 34°41' E 135°12'0 0.0
2017-Oct-12 20:27N 34°41' E 135°12'0 0.0
2017-Oct-12 19:57N 34°41' E 135°12'0 0.0
2017-Oct-12 19:27N 34°41' E 135°12'0 0.0
2017-Oct-12 18:57N 34°41' E 135°12'0 0.0
2017-Oct-12 18:27N 34°41' E 135°12'0 0.0
2017-Oct-12 17:57N 34°41' E 135°12'0 0.0
2017-Oct-12 17:27N 34°41' E 135°12'0 0.0
2017-Oct-12 16:57N 34°41' E 135°12'0 0.0
2017-Oct-12 16:30N 34°41' E 135°12'3 5.6
2017-Oct-12 16:00N 34°39' E 135°15'0 0.1
2017-Oct-12 15:30N 34°39' E 135°15'3 5.7
2017-Oct-12 15:00N 34°41' E 135°12'0 0.0
2017-Oct-12 14:26N 34°41' E 135°12'0 0.0
2017-Oct-12 13:56N 34°41' E 135°12'0 0.0
2017-Oct-12 13:20N 34°41' E 135°12'0 0.0
2017-Oct-12 12:56N 34°41' E 135°12'0 0.0
2017-Oct-12 12:26N 34°41' E 135°12'0 0.0
2017-Oct-12 11:50N 34°41' E 135°12'0 0.0
2017-Oct-12 11:26N 34°41' E 135°12'0 0.0
2017-Oct-12 10:50N 34°41' E 135°12'2 7.0
2017-Oct-12 10:30N 34°41' E 135°15'2 3.5
2017-Oct-12 09:54N 34°41' E 135°17'1 1.7
2017-Oct-12 09:29N 34°40' E 135°18'0 0.6
2017-Oct-12 08:57N 34°40' E 135°18'1 3.3
2017-Oct-12 08:30N 34°42' E 135°17'1 1.4
2017-Oct-12 08:00N 34°42' E 135°17'3 6.4
2017-Oct-12 07:29N 34°40' E 135°13'0 0.0
2017-Oct-12 06:59N 34°40' E 135°13'1 2.7
2017-Oct-12 06:30N 34°40' E 135°15'1 1.8
2017-Oct-12 06:00N 34°39' E 135°15'0 0.2
2017-Oct-12 05:30N 34°39' E 135°15'3 4.7
2017-Oct-12 04:57N 34°41' E 135°12'0 0.0
2017-Oct-12 04:27N 34°41' E 135°12'0 0.0
2017-Oct-12 03:57N 34°41' E 135°12'0 0.0
2017-Oct-12 03:27N 34°41' E 135°12'0 0.0
2017-Oct-12 02:57N 34°41' E 135°12'0 0.0
2017-Oct-12 02:27N 34°41' E 135°12'0 0.0
2017-Oct-12 01:51N 34°41' E 135°12'0 0.0
2017-Oct-12 01:03N 34°41' E 135°12'0 0.0
2017-Oct-12 00:57N 34°41' E 135°12'0 0.0
2017-Oct-12 00:27N 34°41' E 135°12'0 0.0
2017-Oct-11 23:57N 34°41' E 135°12'1 2.7
2017-Oct-11 23:30N 34°41' E 135°14'3 5.8
2017-Oct-11 23:00N 34°41' E 135°17'0 0.2
2017-Oct-11 22:30N 34°41' E 135°17'1 1.1
2017-Oct-11 22:01N 34°40' E 135°18'3 6.2
2017-Oct-11 21:31N 34°41' E 135°14'2 2.9
2017-Oct-11 20:57N 34°41' E 135°12'0 0.0
2017-Oct-11 00:00N 34°41' E 135°12'0 0.0
2017-Oct-10 23:30N 34°41' E 135°12'4 7.8
2017-Oct-10 23:00N 34°41' E 135°17'0 0.6
2017-Oct-10 22:30N 34°41' E 135°17'1 1.2
2017-Oct-10 21:59N 34°40' E 135°18'3 6.0
2017-Oct-10 21:30N 34°41' E 135°14'2 3.9
2017-Oct-10 20:59N 34°41' E 135°12'0 0.0
2017-Oct-10 09:51N 34°41' E 135°12'2 4.8
2017-Oct-10 09:30N 34°40' E 135°14'1 1.1
2017-Oct-10 09:00N 34°41' E 135°13'0 0.4
2017-Oct-10 08:30N 34°41' E 135°13'4 7.5
2017-Oct-10 08:00N 34°41' E 135°18'0 0.4
2017-Oct-10 07:30N 34°41' E 135°17'4 7.7
2017-Oct-10 07:00N 34°41' E 135°13'0 0.7
2017-Oct-10 06:27N 34°41' E 135°12'0 0.0
2017-Oct-10 05:51N 34°41' E 135°12'0 0.0
2017-Oct-10 05:27N 34°41' E 135°12'0 0.0
2017-Oct-10 04:57N 34°41' E 135°12'0 0.0
2017-Oct-10 04:27N 34°41' E 135°12'0 0.0
2017-Oct-10 03:51N 34°41' E 135°12'0 0.0
2017-Oct-10 03:27N 34°41' E 135°12'0 0.0
2017-Oct-10 02:57N 34°41' E 135°12'0 0.0
2017-Oct-10 02:27N 34°41' E 135°12'0 0.0
2017-Oct-10 01:57N 34°41' E 135°12'0 0.0
2017-Oct-10 01:15N 34°41' E 135°12'0 0.0
2017-Oct-10 00:57N 34°41' E 135°12'0 0.0
2017-Oct-10 00:21N 34°41' E 135°12'0 0.0
2017-Oct-09 23:57N 34°41' E 135°12'2 4.0
2017-Oct-09 23:30N 34°41' E 135°14'3 5.0
2017-Oct-09 23:00N 34°41' E 135°17'1 2.1
2017-Oct-09 22:30N 34°40' E 135°18'1 2.6
2017-Oct-09 22:00N 34°41' E 135°17'4 6.5
2017-Oct-09 21:25N 34°41' E 135°12'0 0.0
2017-Oct-09 20:58N 34°41' E 135°12'0 0.0
2017-Oct-07 21:33N 34°41' E 135°12'0 2.5
2017-Oct-07 21:30N 34°41' E 135°12'3 5.3
2017-Oct-07 21:00N 34°39' E 135°15'1 1.7
2017-Oct-07 20:28N 34°40' E 135°14'0 0.0
2017-Oct-07 19:58N 34°40' E 135°14'0 0.0
2017-Oct-07 19:28N 34°40' E 135°14'0 0.0
2017-Oct-07 18:58N 34°40' E 135°14'0 0.0
2017-Oct-07 18:28N 34°40' E 135°14'0 0.0
2017-Oct-07 17:58N 34°40' E 135°14'0 0.0
2017-Oct-07 17:28N 34°40' E 135°14'0 0.0
2017-Oct-07 16:58N 34°40' E 135°14'0 0.3
2017-Oct-07 16:31N 34°40' E 135°14'0 0.3
2017-Oct-07 15:58N 34°40' E 135°14'0 0.0
2017-Oct-07 15:28N 34°40' E 135°14'0 0.0
2017-Oct-07 14:58N 34°40' E 135°14'0 0.0
2017-Oct-07 14:28N 34°40' E 135°14'0 0.0
2017-Oct-07 13:46N 34°40' E 135°14'0 0.0
2017-Oct-07 13:22N 34°40' E 135°14'0 0.0
2017-Oct-07 12:58N 34°40' E 135°14'0 0.0
2017-Oct-07 12:04N 34°40' E 135°14'0 0.0
2017-Oct-07 11:58N 34°40' E 135°14'0 0.0
2017-Oct-07 11:28N 34°40' E 135°14'1 1.5
2017-Oct-07 11:01N 34°40' E 135°14'1 1.7
2017-Oct-07 10:30N 34°39' E 135°15'1 1.7
2017-Oct-07 10:00N 34°40' E 135°15'2 2.8
2017-Oct-07 09:22N 34°40' E 135°13'0 0.0
2017-Oct-07 08:58N 34°40' E 135°13'0 0.0
2017-Oct-07 08:28N 34°40' E 135°13'0 0.0
2017-Oct-07 07:58N 34°40' E 135°13'3 7.3
2017-Oct-07 07:30N 34°41' E 135°17'1 1.1
2017-Oct-07 07:00N 34°41' E 135°18'1 1.8
2017-Oct-07 06:30N 34°41' E 135°17'0 0.0
2017-Oct-07 06:00N 34°41' E 135°17'0 0.0
2017-Oct-07 05:30N 34°41' E 135°17'0 0.0
2017-Oct-07 05:00N 34°41' E 135°17'0 0.0
2017-Oct-07 04:30N 34°41' E 135°17'1 3.0
2017-Oct-07 04:00N 34°40' E 135°15'0 1.0
2017-Oct-07 03:30N 34°40' E 135°14'2 3.3
2017-Oct-07 02:53N 34°41' E 135°12'0 0.0
2017-Oct-07 02:29N 34°41' E 135°12'0 0.0
2017-Oct-07 01:59N 34°41' E 135°12'0 0.0
2017-Oct-07 01:29N 34°41' E 135°12'0 0.0
2017-Oct-07 00:59N 34°41' E 135°12'0 0.0
2017-Oct-07 00:29N 34°41' E 135°12'0 0.0
2017-Oct-06 23:53N 34°41' E 135°12'0 0.0
2017-Oct-06 23:29N 34°41' E 135°12'4 9.1
2017-Oct-06 23:00N 34°41' E 135°17'0 0.9
2017-Oct-06 22:30N 34°41' E 135°18'0 0.7
2017-Oct-06 22:00N 34°40' E 135°18'3 5.9
2017-Oct-06 21:30N 34°41' E 135°14'2 3.4
2017-Oct-06 20:59N 34°41' E 135°12'  
Track history (hours):
 
Tides and Currents Weather Stations Pressure Air Temp Water Temp Dewpoint Dewpoint Depression Visibility Wind Speed Wind Dir Waves Ship Positions

Nunobiki Maru

Last reported at 2017-Oct-16 06:01 UTC. Time now 2017-Oct-17 13:11 UTC.
Position N 34°41' E 135°12'.

Length 34 m; draft 3.8 m.

Type: Tug. MMSI: 431003839.

Date/timePositionNaut miles runAvg speedWind from/ knotsBaromVisibWave heightAir tempDewpointWater temp
2017-Oct-16 06:01N 34°41' E 135°12'0 0.0
2017-Oct-16 05:55N 34°41' E 135°12'0 0.0
2017-Oct-16 05:25N 34°41' E 135°12'0 0.0
2017-Oct-16 04:55N 34°41' E 135°12'0 0.0
2017-Oct-16 04:25N 34°41' E 135°12'0 0.0
2017-Oct-16 03:55N 34°41' E 135°12'0 0.0
2017-Oct-16 03:25N 34°41' E 135°12'0 0.0
2017-Oct-16 02:55N 34°41' E 135°12'0 0.0
2017-Oct-16 02:13N 34°41' E 135°12'0 0.0
2017-Oct-16 01:55N 34°41' E 135°12'0 0.0
2017-Oct-16 01:25N 34°41' E 135°12'0 0.0
2017-Oct-16 00:49N 34°41' E 135°12'1 1.6
2017-Oct-16 00:30N 34°41' E 135°13'3 5.4
2017-Oct-15 23:56N 34°41' E 135°17'0 0.0
2017-Oct-15 23:26N 34°41' E 135°17'2 3.6
2017-Oct-15 23:00N 34°40' E 135°15'1 1.0
2017-Oct-15 22:31N 34°40' E 135°14'2 3.9
2017-Oct-15 22:00N 34°39' E 135°16'4 8.0
2017-Oct-15 21:31N 34°41' E 135°12'0 0.1
2017-Oct-15 21:00N 34°41' E 135°12'0 0.0
2017-Oct-15 20:30N 34°41' E 135°12'0 0.0
2017-Oct-15 04:59N 34°41' E 135°12'0 0.0
2017-Oct-15 04:30N 34°41' E 135°12'0 0.0
2017-Oct-15 04:00N 34°41' E 135°12'0 0.0
2017-Oct-15 03:31N 34°41' E 135°12'0 0.0
2017-Oct-15 03:01N 34°41' E 135°12'0 0.0
2017-Oct-15 02:30N 34°41' E 135°12'0 0.0
2017-Oct-15 02:00N 34°41' E 135°12'0 0.0
2017-Oct-15 01:30N 34°41' E 135°12'0 0.0
2017-Oct-15 01:00N 34°41' E 135°12'0 0.0
2017-Oct-15 00:30N 34°41' E 135°12'0 0.0
2017-Oct-15 00:00N 34°41' E 135°12'4 8.8
2017-Oct-14 23:31N 34°42' E 135°17'1 1.1
2017-Oct-14 23:00N 34°41' E 135°17'1 1.6
2017-Oct-14 22:30N 34°41' E 135°18'1 1.3
2017-Oct-14 22:00N 34°40' E 135°18'2 4.0
2017-Oct-14 21:31N 34°41' E 135°15'3 4.1
2017-Oct-14 20:51N 34°41' E 135°12'1 0.0
2017-Oct-14 04:56N 34°41' E 135°13'1 1.2
2017-Oct-14 04:30N 34°41' E 135°14'0 0.0
2017-Oct-14 04:00N 34°41' E 135°14'0 0.0
2017-Oct-14 03:30N 34°41' E 135°14'0 0.0
2017-Oct-14 03:00N 34°41' E 135°14'0 0.0
2017-Oct-14 02:30N 34°41' E 135°14'0 0.0
2017-Oct-14 02:00N 34°41' E 135°14'1 1.6
2017-Oct-14 01:30N 34°41' E 135°13'4 7.7
2017-Oct-14 01:00N 34°41' E 135°17'0 1.0
2017-Oct-14 00:30N 34°41' E 135°18'1 1.7
2017-Oct-14 00:00N 34°40' E 135°18'0 0.2
2017-Oct-13 23:30N 34°40' E 135°18'2 3.7
2017-Oct-13 23:00N 34°41' E 135°16'1 1.5
2017-Oct-13 22:30N 34°41' E 135°16'1 2.4
2017-Oct-13 22:00N 34°41' E 135°18'2 4.3
2017-Oct-13 21:30N 34°41' E 135°15'3 5.3
2017-Oct-13 21:00N 34°41' E 135°12'0 0.0
2017-Oct-13 20:20N 34°41' E 135°12'0 0.0
2017-Oct-12 23:44N 34°41' E 135°12'1 6.6
2017-Oct-12 23:30N 34°41' E 135°14'1 2.9
2017-Oct-12 23:00N 34°41' E 135°16'1 1.2
2017-Oct-12 22:30N 34°40' E 135°15'1 1.1
2017-Oct-12 21:51N 34°40' E 135°15'1 2.0
2017-Oct-12 21:29N 34°40' E 135°15'2 4.3
2017-Oct-12 20:57N 34°41' E 135°12'0 0.0
2017-Oct-12 20:27N 34°41' E 135°12'0 0.0
2017-Oct-12 19:57N 34°41' E 135°12'0 0.0
2017-Oct-12 19:27N 34°41' E 135°12'0 0.0
2017-Oct-12 18:57N 34°41' E 135°12'0 0.0
2017-Oct-12 18:27N 34°41' E 135°12'0 0.0
2017-Oct-12 17:57N 34°41' E 135°12'0 0.0
2017-Oct-12 17:27N 34°41' E 135°12'0 0.0
2017-Oct-12 16:57N 34°41' E 135°12'0 0.0
2017-Oct-12 16:30N 34°41' E 135°12'3 5.6
2017-Oct-12 16:00N 34°39' E 135°15'0 0.1
2017-Oct-12 15:30N 34°39' E 135°15'3 5.7
2017-Oct-12 15:00N 34°41' E 135°12'0 0.0
2017-Oct-12 14:26N 34°41' E 135°12'0 0.0
2017-Oct-12 13:56N 34°41' E 135°12'0 0.0
2017-Oct-12 13:20N 34°41' E 135°12'0 0.0
2017-Oct-12 12:56N 34°41' E 135°12'0 0.0
2017-Oct-12 12:26N 34°41' E 135°12'0 0.0
2017-Oct-12 11:50N 34°41' E 135°12'0 0.0
2017-Oct-12 11:26N 34°41' E 135°12'0 0.0
2017-Oct-12 10:50N 34°41' E 135°12'2 7.0
2017-Oct-12 10:30N 34°41' E 135°15'2 3.5
2017-Oct-12 09:54N 34°41' E 135°17'1 1.7
2017-Oct-12 09:29N 34°40' E 135°18'0 0.6
2017-Oct-12 08:57N 34°40' E 135°18'1 3.3
2017-Oct-12 08:30N 34°42' E 135°17'1 1.4
2017-Oct-12 08:00N 34°42' E 135°17'3 6.4
2017-Oct-12 07:29N 34°40' E 135°13'0 0.0
2017-Oct-12 06:59N 34°40' E 135°13'1 2.7
2017-Oct-12 06:30N 34°40' E 135°15'1 1.8
2017-Oct-12 06:00N 34°39' E 135°15'0 0.2
2017-Oct-12 05:30N 34°39' E 135°15'3 4.7
2017-Oct-12 04:57N 34°41' E 135°12'0 0.0
2017-Oct-12 04:27N 34°41' E 135°12'0 0.0
2017-Oct-12 03:57N 34°41' E 135°12'0 0.0
2017-Oct-12 03:27N 34°41' E 135°12'0 0.0
2017-Oct-12 02:57N 34°41' E 135°12'0 0.0
2017-Oct-12 02:27N 34°41' E 135°12'0 0.0
2017-Oct-12 01:51N 34°41' E 135°12'0 0.0
2017-Oct-12 01:03N 34°41' E 135°12'0 0.0
2017-Oct-12 00:57N 34°41' E 135°12'0 0.0
2017-Oct-12 00:27N 34°41' E 135°12'0 0.0
2017-Oct-11 23:57N 34°41' E 135°12'1 2.7
2017-Oct-11 23:30N 34°41' E 135°14'3 5.8
2017-Oct-11 23:00N 34°41' E 135°17'0 0.2
2017-Oct-11 22:30N 34°41' E 135°17'1 1.1
2017-Oct-11 22:01N 34°40' E 135°18'3 6.2
2017-Oct-11 21:31N 34°41' E 135°14'2 2.9
2017-Oct-11 20:57N 34°41' E 135°12'0 0.0
2017-Oct-11 00:00N 34°41' E 135°12'0 0.0
2017-Oct-10 23:30N 34°41' E 135°12'4 7.8
2017-Oct-10 23:00N 34°41' E 135°17'0 0.6
2017-Oct-10 22:30N 34°41' E 135°17'1 1.2
2017-Oct-10 21:59N 34°40' E 135°18'3 6.0
2017-Oct-10 21:30N 34°41' E 135°14'2 3.9
2017-Oct-10 20:59N 34°41' E 135°12'0 0.0
2017-Oct-10 09:51N 34°41' E 135°12'2 4.8
2017-Oct-10 09:30N 34°40' E 135°14'1 1.1
2017-Oct-10 09:00N 34°41' E 135°13'0 0.4
2017-Oct-10 08:30N 34°41' E 135°13'4 7.5
2017-Oct-10 08:00N 34°41' E 135°18'0 0.4
2017-Oct-10 07:30N 34°41' E 135°17'4 7.7
2017-Oct-10 07:00N 34°41' E 135°13'0 0.7
2017-Oct-10 06:27N 34°41' E 135°12'0 0.0
2017-Oct-10 05:51N 34°41' E 135°12'0 0.0
2017-Oct-10 05:27N 34°41' E 135°12'0 0.0
2017-Oct-10 04:57N 34°41' E 135°12'0 0.0
2017-Oct-10 04:27N 34°41' E 135°12'0 0.0
2017-Oct-10 03:51N 34°41' E 135°12'0 0.0
2017-Oct-10 03:27N 34°41' E 135°12'0 0.0
2017-Oct-10 02:57N 34°41' E 135°12'0 0.0
2017-Oct-10 02:27N 34°41' E 135°12'0 0.0
2017-Oct-10 01:57N 34°41' E 135°12'0 0.0
2017-Oct-10 01:15N 34°41' E 135°12'0 0.0
2017-Oct-10 00:57N 34°41' E 135°12'0 0.0
2017-Oct-10 00:21N 34°41' E 135°12'0 0.0
2017-Oct-09 23:57N 34°41' E 135°12'2 4.0
2017-Oct-09 23:30N 34°41' E 135°14'3 5.0
2017-Oct-09 23:00N 34°41' E 135°17'1 2.1
2017-Oct-09 22:30N 34°40' E 135°18'1 2.6
2017-Oct-09 22:00N 34°41' E 135°17'4 6.5
2017-Oct-09 21:25N 34°41' E 135°12'0 0.0
2017-Oct-09 20:58N 34°41' E 135°12'0 0.0
2017-Oct-07 21:33N 34°41' E 135°12'0 2.5
2017-Oct-07 21:30N 34°41' E 135°12'3 5.3
2017-Oct-07 21:00N 34°39' E 135°15'1 1.7
2017-Oct-07 20:28N 34°40' E 135°14'0 0.0
2017-Oct-07 19:58N 34°40' E 135°14'0 0.0
2017-Oct-07 19:28N 34°40' E 135°14'0 0.0
2017-Oct-07 18:58N 34°40' E 135°14'0 0.0
2017-Oct-07 18:28N 34°40' E 135°14'0 0.0
2017-Oct-07 17:58N 34°40' E 135°14'0 0.0
2017-Oct-07 17:28N 34°40' E 135°14'0 0.0
2017-Oct-07 16:58N 34°40' E 135°14'0 0.3
2017-Oct-07 16:31N 34°40' E 135°14'0 0.3
2017-Oct-07 15:58N 34°40' E 135°14'0 0.0
2017-Oct-07 15:28N 34°40' E 135°14'0 0.0
2017-Oct-07 14:58N 34°40' E 135°14'0 0.0
2017-Oct-07 14:28N 34°40' E 135°14'0 0.0
2017-Oct-07 13:46N 34°40' E 135°14'0 0.0
2017-Oct-07 13:22N 34°40' E 135°14'0 0.0
2017-Oct-07 12:58N 34°40' E 135°14'0 0.0
2017-Oct-07 12:04N 34°40' E 135°14'0 0.0
2017-Oct-07 11:58N 34°40' E 135°14'0 0.0
2017-Oct-07 11:28N 34°40' E 135°14'1 1.5
2017-Oct-07 11:01N 34°40' E 135°14'1 1.7
2017-Oct-07 10:30N 34°39' E 135°15'1 1.7
2017-Oct-07 10:00N 34°40' E 135°15'2 2.8
2017-Oct-07 09:22N 34°40' E 135°13'0 0.0
2017-Oct-07 08:58N 34°40' E 135°13'0 0.0
2017-Oct-07 08:28N 34°40' E 135°13'0 0.0
2017-Oct-07 07:58N 34°40' E 135°13'3 7.3
2017-Oct-07 07:30N 34°41' E 135°17'1 1.1
2017-Oct-07 07:00N 34°41' E 135°18'1 1.8
2017-Oct-07 06:30N 34°41' E 135°17'0 0.0
2017-Oct-07 06:00N 34°41' E 135°17'0 0.0
2017-Oct-07 05:30N 34°41' E 135°17'0 0.0
2017-Oct-07 05:00N 34°41' E 135°17'0 0.0
2017-Oct-07 04:30N 34°41' E 135°17'1 3.0
2017-Oct-07 04:00N 34°40' E 135°15'0 1.0
2017-Oct-07 03:30N 34°40' E 135°14'2 3.3
2017-Oct-07 02:53N 34°41' E 135°12'0 0.0
2017-Oct-07 02:29N 34°41' E 135°12'0 0.0
2017-Oct-07 01:59N 34°41' E 135°12'0 0.0
2017-Oct-07 01:29N 34°41' E 135°12'0 0.0
2017-Oct-07 00:59N 34°41' E 135°12'0 0.0
2017-Oct-07 00:29N 34°41' E 135°12'0 0.0
2017-Oct-06 23:53N 34°41' E 135°12'0 0.0
2017-Oct-06 23:29N 34°41' E 135°12'4 9.1
2017-Oct-06 23:00N 34°41' E 135°17'0 0.9
2017-Oct-06 22:30N 34°41' E 135°18'0 0.7
2017-Oct-06 22:00N 34°40' E 135°18'3 5.9
2017-Oct-06 21:30N 34°41' E 135°14'2 3.4
2017-Oct-06 20:59N 34°41' E 135°12'  

Dump ship's entire track history